createdAt,value
2016-07-18T00:00:28.095Z,99.99
2016-07-18T00:01:28.133Z,99.99
2016-07-18T00:02:28.095Z,99.99
2016-07-18T00:03:28.137Z,99.99
2016-07-18T00:04:28.240Z,99.99
2016-07-18T00:05:28.116Z,99.99
2016-07-18T00:06:28.097Z,99.99
2016-07-18T00:07:28.115Z,99.99
2016-07-18T00:08:28.096Z,99.99
2016-07-18T00:09:28.102Z,99.99
2016-07-18T00:10:28.250Z,99.99
2016-07-18T00:11:28.128Z,99.99
2016-07-18T00:12:28.219Z,99.99
2016-07-18T00:13:28.812Z,99.99
2016-07-18T00:14:28.116Z,99.99
2016-07-18T00:15:28.222Z,99.99
2016-07-18T00:16:28.697Z,99.99
2016-07-18T00:17:28.164Z,99.99
2016-07-18T00:18:28.119Z,99.99
2016-07-18T00:19:28.488Z,99.99
2016-07-18T00:20:28.140Z,99.99
2016-07-18T00:21:28.103Z,99.99
2016-07-18T00:22:28.148Z,99.99
2016-07-18T00:23:28.150Z,99.99
2016-07-18T00:24:28.120Z,99.99
2016-07-18T00:25:28.342Z,99.99
2016-07-18T00:26:28.177Z,99.99
2016-07-18T00:27:28.129Z,99.99
2016-07-18T00:28:28.346Z,99.99
2016-07-18T00:29:28.124Z,99.99
2016-07-18T00:30:28.106Z,99.99
2016-07-18T00:31:28.381Z,99.99
2016-07-18T00:32:28.136Z,99.99
2016-07-18T00:33:28.134Z,99.99
2016-07-18T00:34:28.310Z,99.99
2016-07-18T00:35:28.130Z,99.99
2016-07-18T00:36:28.165Z,99.99
2016-07-18T00:37:28.146Z,99.99
2016-07-18T00:38:28.122Z,99.99
2016-07-18T00:39:28.247Z,99.99
2016-07-18T00:40:28.474Z,99.99
2016-07-18T00:41:28.141Z,99.99
2016-07-18T00:42:28.129Z,99.99
2016-07-18T00:43:28.133Z,99.99
2016-07-18T00:44:28.162Z,99.99
2016-07-18T00:45:28.146Z,99.99
2016-07-18T00:46:28.716Z,99.99
2016-07-18T00:47:28.186Z,99.99
2016-07-18T00:48:28.193Z,99.99
2016-07-18T00:49:28.432Z,99.99
2016-07-18T00:50:28.177Z,99.99
2016-07-18T00:51:28.132Z,99.99
2016-07-18T00:52:28.131Z,99.99
2016-07-18T00:53:28.159Z,99.99
2016-07-18T00:54:28.233Z,99.99
2016-07-18T00:55:28.539Z,99.99
2016-07-18T00:56:28.173Z,99.99
2016-07-18T00:57:28.252Z,99.99
2016-07-18T00:58:29.079Z,99.99
2016-07-18T00:59:28.202Z,99.99
2016-07-18T01:00:28.279Z,99.99
2016-07-18T01:01:28.137Z,99.99
2016-07-18T01:02:28.258Z,99.99
2016-07-18T01:03:28.132Z,99.99
2016-07-18T01:04:28.497Z,99.99
2016-07-18T01:05:28.176Z,99.99
2016-07-18T01:06:28.139Z,99.99
2016-07-18T01:07:28.161Z,99.99
2016-07-18T01:08:28.155Z,99.99
2016-07-18T01:09:28.171Z,99.99
2016-07-18T01:10:28.206Z,99.99
2016-07-18T01:11:28.141Z,99.99
2016-07-18T01:12:28.218Z,99.99
2016-07-18T01:13:28.249Z,99.99
2016-07-18T01:14:28.173Z,99.99
2016-07-18T01:15:28.151Z,99.99
2016-07-18T01:16:28.409Z,99.99
2016-07-18T01:17:28.163Z,99.99
2016-07-18T01:18:28.220Z,99.99
2016-07-18T01:19:28.191Z,99.99
2016-07-18T01:20:28.160Z,99.99
2016-07-18T01:21:28.145Z,99.99
2016-07-18T01:22:28.285Z,99.99
2016-07-18T01:23:28.146Z,99.99
2016-07-18T01:24:28.150Z,99.99
2016-07-18T01:25:28.256Z,99.99
2016-07-18T01:26:28.149Z,99.99
2016-07-18T01:27:28.177Z,99.99
2016-07-18T01:28:28.434Z,99.99
2016-07-18T01:29:28.213Z,99.99
2016-07-18T01:30:28.160Z,99.99
2016-07-18T01:31:28.419Z,99.99
2016-07-18T01:32:28.163Z,99.99
2016-07-18T01:33:28.178Z,99.99
2016-07-18T01:34:28.428Z,99.99
2016-07-18T01:35:28.192Z,99.99
2016-07-18T01:36:29.211Z,99.99
2016-07-18T01:37:28.247Z,99.99
2016-07-18T01:38:28.198Z,99.99
2016-07-18T01:39:28.200Z,99.99
2016-07-18T01:40:28.562Z,99.99
2016-07-18T01:41:28.220Z,99.99
2016-07-18T01:42:28.181Z,99.99
2016-07-18T01:43:28.258Z,99.99
2016-07-18T01:44:28.201Z,99.99
2016-07-18T01:45:28.198Z,99.99
2016-07-18T01:46:28.195Z,99.99
2016-07-18T01:47:28.711Z,99.99
2016-07-18T01:48:28.209Z,99.99
2016-07-18T01:49:28.645Z,99.99
2016-07-18T01:50:28.189Z,99.99
2016-07-18T01:51:28.208Z,99.99
2016-07-18T01:52:28.400Z,99.99
2016-07-18T01:53:28.821Z,99.99
2016-07-18T01:54:28.192Z,99.99
2016-07-18T01:55:28.199Z,99.99
2016-07-18T01:56:28.224Z,99.99
2016-07-18T01:57:28.203Z,99.99
2016-07-18T01:58:28.568Z,99.99
2016-07-18T01:59:28.210Z,99.99
2016-07-18T02:00:28.232Z,99.99
2016-07-18T02:01:28.610Z,99.99
2016-07-18T02:02:28.190Z,99.99
2016-07-18T02:03:28.193Z,99.99
2016-07-18T02:04:28.913Z,99.99
2016-07-18T02:05:28.201Z,99.99
2016-07-18T02:06:28.229Z,99.99
2016-07-18T02:07:28.381Z,99.99
2016-07-18T02:08:28.253Z,99.99
2016-07-18T02:09:28.258Z,99.99
2016-07-18T02:10:28.703Z,99.99
2016-07-18T02:11:28.248Z,99.99
2016-07-18T02:12:28.279Z,99.99
2016-07-18T02:13:28.603Z,99.99
2016-07-18T02:14:28.224Z,99.99
2016-07-18T02:15:28.229Z,99.99
2016-07-18T02:16:28.704Z,99.99
2016-07-18T02:17:28.264Z,99.99
2016-07-18T02:18:28.216Z,99.99
2016-07-18T02:19:28.223Z,99.99
2016-07-18T02:20:28.213Z,99.99
2016-07-18T02:21:28.235Z,99.99
2016-07-18T02:22:28.450Z,99.99
2016-07-18T02:23:28.220Z,99.99
2016-07-18T02:24:28.216Z,99.99
2016-07-18T02:25:28.292Z,99.99
2016-07-18T02:26:28.242Z,99.99
2016-07-18T02:27:28.267Z,99.99
2016-07-18T02:28:28.456Z,99.99
2016-07-18T02:29:28.252Z,99.99
2016-07-18T02:30:28.225Z,99.99
2016-07-18T02:31:28.346Z,99.99
2016-07-18T02:32:28.255Z,99.99
2016-07-18T02:33:28.255Z,99.99
2016-07-18T02:34:28.415Z,99.99
2016-07-18T02:35:28.363Z,99.99
2016-07-18T02:36:28.223Z,99.99
2016-07-18T02:37:28.230Z,99.99
2016-07-18T02:38:28.256Z,99.99
2016-07-18T02:39:28.253Z,99.99
2016-07-18T02:40:28.708Z,99.99
2016-07-18T02:41:28.337Z,99.99
2016-07-18T02:42:28.257Z,99.99
2016-07-18T02:43:28.734Z,99.99
2016-07-18T02:44:28.236Z,99.99
2016-07-18T02:45:28.224Z,99.99
2016-07-18T02:46:28.255Z,99.99
2016-07-18T02:47:28.229Z,99.99
2016-07-18T02:48:28.225Z,99.99
2016-07-18T02:49:28.729Z,99.99
2016-07-18T02:50:28.258Z,99.99
2016-07-18T02:51:28.232Z,99.99
2016-07-18T02:52:28.707Z,99.99
2016-07-18T02:53:28.235Z,99.99
2016-07-18T02:54:28.259Z,99.99
2016-07-18T02:55:28.926Z,99.99
2016-07-18T02:56:28.254Z,99.99
2016-07-18T02:57:28.875Z,99.99
2016-07-18T02:58:28.593Z,99.99
2016-07-18T02:59:28.257Z,99.99
2016-07-18T03:00:28.235Z,99.99
2016-07-18T03:01:28.272Z,99.99
2016-07-18T03:02:28.256Z,99.99
2016-07-18T03:03:28.246Z,99.99
2016-07-18T03:04:28.689Z,99.99
2016-07-18T03:05:28.284Z,99.99
2016-07-18T03:06:28.246Z,99.99
2016-07-18T03:07:28.559Z,99.99
2016-07-18T03:08:28.244Z,99.99
2016-07-18T03:09:28.248Z,99.99
2016-07-18T03:10:28.456Z,99.99
2016-07-18T03:11:28.258Z,99.99
2016-07-18T03:12:28.240Z,99.99
2016-07-18T03:13:28.552Z,99.99
2016-07-18T03:14:28.254Z,99.99
2016-07-18T03:15:28.246Z,99.99
2016-07-18T03:16:28.590Z,99.99
2016-07-18T03:17:28.262Z,99.99
2016-07-18T03:18:28.248Z,99.99
2016-07-18T03:19:28.536Z,99.99
2016-07-18T03:20:28.259Z,99.99
2016-07-18T03:21:28.256Z,99.99
2016-07-18T03:22:28.607Z,99.99
2016-07-18T03:23:28.259Z,99.99
2016-07-18T03:24:28.256Z,99.99
2016-07-18T03:25:28.842Z,99.99
2016-07-18T03:26:28.255Z,99.99
2016-07-18T03:27:28.259Z,99.99
2016-07-18T03:28:28.295Z,99.99
2016-07-18T03:29:28.276Z,99.99
2016-07-18T03:30:28.258Z,99.99
2016-07-18T03:31:28.258Z,99.99
2016-07-18T03:32:28.258Z,99.99
2016-07-18T03:33:28.258Z,99.99
2016-07-18T03:34:28.735Z,99.99
2016-07-18T03:35:28.276Z,99.99
2016-07-18T03:36:28.304Z,99.99
2016-07-18T03:37:28.289Z,99.99
2016-07-18T03:38:28.289Z,99.99
2016-07-18T03:39:28.262Z,99.99
2016-07-18T03:40:28.283Z,99.99
2016-07-18T03:41:28.287Z,99.99
2016-07-18T03:42:28.287Z,99.99
2016-07-18T03:43:29.161Z,99.99
2016-07-18T03:44:28.291Z,99.99
2016-07-18T03:45:28.319Z,99.99
2016-07-18T03:46:28.565Z,99.99
2016-07-18T03:47:28.282Z,99.99
2016-07-18T03:48:28.305Z,99.99
2016-07-18T03:49:28.529Z,99.99
2016-07-18T03:50:28.289Z,99.99
2016-07-18T03:51:28.289Z,99.99
2016-07-18T03:52:28.289Z,99.99
2016-07-18T03:53:28.289Z,99.99
2016-07-18T03:54:28.276Z,99.99
2016-07-18T03:55:28.296Z,99.99
2016-07-18T03:56:28.282Z,99.99
2016-07-18T03:57:28.275Z,99.99
2016-07-18T03:58:28.919Z,99.99
2016-07-18T03:59:28.276Z,99.99
2016-07-18T04:00:28.288Z,99.99
2016-07-18T04:01:28.600Z,99.99
2016-07-18T04:02:28.290Z,99.99
2016-07-18T04:03:28.339Z,99.99
2016-07-18T04:04:28.326Z,99.99
2016-07-18T04:05:28.286Z,99.99
2016-07-18T04:06:28.289Z,99.99
2016-07-18T04:07:28.290Z,99.99
2016-07-18T04:08:28.324Z,99.99
2016-07-18T04:09:28.305Z,99.99
2016-07-18T04:10:38.256Z,99.99
2016-07-18T04:11:28.325Z,99.99
2016-07-18T04:12:28.372Z,99.99
2016-07-18T04:13:28.769Z,99.99
2016-07-18T04:14:28.301Z,99.99
2016-07-18T04:15:28.299Z,99.99
2016-07-18T04:16:29.032Z,99.99
2016-07-18T04:17:28.320Z,99.99
2016-07-18T04:18:28.318Z,99.99
2016-07-18T04:19:28.310Z,99.99
2016-07-18T04:20:28.284Z,99.99
2016-07-18T04:21:28.291Z,99.99
2016-07-18T04:22:28.595Z,99.99
2016-07-18T04:23:28.317Z,99.99
2016-07-18T04:24:28.294Z,99.99
2016-07-18T04:25:28.313Z,99.99
2016-07-18T04:26:28.322Z,99.99
2016-07-18T04:27:28.326Z,99.99
2016-07-18T04:28:28.326Z,99.99
2016-07-18T04:29:28.316Z,99.99
2016-07-18T04:30:28.298Z,99.99
2016-07-18T04:31:28.321Z,99.99
2016-07-18T04:32:28.301Z,99.99
2016-07-18T04:33:28.320Z,99.99
2016-07-18T04:34:28.673Z,99.99
2016-07-18T04:35:28.320Z,99.99
2016-07-18T04:36:28.315Z,99.99
2016-07-18T04:37:28.490Z,99.99
2016-07-18T04:38:28.327Z,99.99
2016-07-18T04:39:28.323Z,99.99
2016-07-18T04:40:28.609Z,99.99
2016-07-18T04:41:28.322Z,99.99
2016-07-18T04:42:28.322Z,99.99
2016-07-18T04:43:28.437Z,99.99
2016-07-18T04:44:28.338Z,99.99
2016-07-18T04:45:28.403Z,99.99
2016-07-18T04:46:28.353Z,99.99
2016-07-18T04:47:28.331Z,99.99
2016-07-18T04:48:28.352Z,99.99
2016-07-18T04:49:28.327Z,99.99
2016-07-18T04:50:28.339Z,99.99
2016-07-18T04:51:28.341Z,99.99
2016-07-18T04:52:28.351Z,99.99
2016-07-18T04:53:28.339Z,99.99
2016-07-18T04:54:28.334Z,99.99
2016-07-18T04:55:29.062Z,99.99
2016-07-18T04:56:28.350Z,99.99
2016-07-18T04:57:28.349Z,99.99
2016-07-18T04:58:28.501Z,99.99
2016-07-18T04:59:28.335Z,99.99
2016-07-18T05:00:28.344Z,99.99
2016-07-18T05:01:28.336Z,99.99
2016-07-18T05:02:28.354Z,99.99
2016-07-18T05:03:28.333Z,99.99
2016-07-18T05:04:28.357Z,99.99
2016-07-18T05:05:28.351Z,99.99
2016-07-18T05:06:28.351Z,99.99
2016-07-18T05:07:28.514Z,99.99
2016-07-18T05:08:28.356Z,99.99
2016-07-18T05:09:28.364Z,99.99
2016-07-18T05:10:28.382Z,99.99
2016-07-18T05:11:28.347Z,99.99
2016-07-18T05:12:28.382Z,99.99
2016-07-18T05:13:28.503Z,99.99
2016-07-18T05:14:28.354Z,99.99
2016-07-18T05:15:28.344Z,99.99
2016-07-18T05:16:28.696Z,99.99
2016-07-18T05:17:28.373Z,99.99
2016-07-18T05:18:28.380Z,99.99
2016-07-18T05:19:28.487Z,99.99
2016-07-18T05:20:28.392Z,99.99
2016-07-18T05:21:28.434Z,99.99
2016-07-18T05:22:28.381Z,99.99
2016-07-18T05:23:28.426Z,99.99
2016-07-18T05:24:28.386Z,99.99
2016-07-18T05:25:28.378Z,99.99
2016-07-18T05:26:28.450Z,99.99
2016-07-18T05:27:28.383Z,99.99
2016-07-18T05:28:28.417Z,99.99
2016-07-18T05:29:28.359Z,99.99
2016-07-18T05:30:28.415Z,99.99
2016-07-18T05:31:28.386Z,99.99
2016-07-18T05:32:28.405Z,99.99
2016-07-18T05:33:28.365Z,99.99
2016-07-18T05:34:28.370Z,99.99
2016-07-18T05:35:28.384Z,99.99
2016-07-18T05:36:28.374Z,99.99
2016-07-18T05:37:28.371Z,99.99
2016-07-18T05:38:28.370Z,99.99
2016-07-18T05:39:28.383Z,99.99
2016-07-18T05:40:28.384Z,99.99
2016-07-18T05:41:28.376Z,99.99
2016-07-18T05:42:28.383Z,99.99
2016-07-18T05:43:28.371Z,99.99
2016-07-18T05:44:28.409Z,99.99
2016-07-18T05:45:28.402Z,99.99
2016-07-18T05:46:28.383Z,99.99
2016-07-18T05:47:28.414Z,99.99
2016-07-18T05:48:28.390Z,99.99
2016-07-18T05:49:28.384Z,99.99
2016-07-18T05:50:28.413Z,99.99
2016-07-18T05:51:28.385Z,99.88
2016-07-18T05:52:28.391Z,99.99
2016-07-18T05:53:28.411Z,99.99
2016-07-18T05:54:28.418Z,99.99
2016-07-18T05:55:28.412Z,99.99
2016-07-18T05:56:28.425Z,99.59
2016-07-18T05:57:28.414Z,99.3
2016-07-18T05:58:28.417Z,99.49
2016-07-18T05:59:28.441Z,99.11
2016-07-18T06:00:28.384Z,99.11
2016-07-18T06:01:28.391Z,99.16
2016-07-18T06:02:28.397Z,98.24
2016-07-18T06:03:28.405Z,98.49
2016-07-18T06:04:28.440Z,98.29
2016-07-18T06:05:28.467Z,97.71
2016-07-18T06:06:28.412Z,98.29
2016-07-18T06:07:28.404Z,97.71
2016-07-18T06:08:28.428Z,97.91
2016-07-18T06:09:28.448Z,97.14
2016-07-18T06:10:29.104Z,97.81
2016-07-18T06:11:28.467Z,98.19
2016-07-18T06:12:28.400Z,96.94
2016-07-18T06:13:28.414Z,97.14
2016-07-18T06:14:28.416Z,96.75
2016-07-18T06:15:28.420Z,96.8
2016-07-18T06:16:28.472Z,96.99
2016-07-18T06:17:28.445Z,96.42
2016-07-18T06:18:28.445Z,96.03
2016-07-18T06:19:28.431Z,96.03
2016-07-18T06:20:28.445Z,95.65
2016-07-18T06:21:28.413Z,94.82
2016-07-18T06:22:28.427Z,94.34
2016-07-18T06:23:28.441Z,94.73
2016-07-18T06:24:28.425Z,94.25
2016-07-18T06:25:28.444Z,93.67
2016-07-18T06:26:28.461Z,93.19
2016-07-18T06:27:28.426Z,93.29
2016-07-18T06:28:28.507Z,93.67
2016-07-18T06:29:28.439Z,93.29
2016-07-18T06:30:28.476Z,92.66
2016-07-18T06:31:28.450Z,92.18
2016-07-18T06:32:28.447Z,91.79
2016-07-18T06:33:28.435Z,92.27
2016-07-18T06:34:28.458Z,91.5
2016-07-18T06:35:28.448Z,91.12
2016-07-18T06:36:28.500Z,91.45
2016-07-18T06:37:28.451Z,91.16
2016-07-18T06:38:28.440Z,90.88
2016-07-18T06:39:28.853Z,91.45
2016-07-18T06:40:28.445Z,92.13
2016-07-18T06:41:28.431Z,91.93
2016-07-18T06:42:28.439Z,91.16
2016-07-18T06:43:28.817Z,89.81
2016-07-18T06:44:28.461Z,90.1
2016-07-18T06:45:28.460Z,89.62
2016-07-18T06:46:28.985Z,90.1
2016-07-18T06:47:28.442Z,89.76
2016-07-18T06:48:28.687Z,89.62
2016-07-18T06:49:28.836Z,89.09
2016-07-18T06:50:28.812Z,87.64
2016-07-18T06:51:29.155Z,85.56
2016-07-18T06:52:28.598Z,82.9
2016-07-18T06:53:28.701Z,80.08
2016-07-18T06:54:28.478Z,77.71
2016-07-18T06:55:29.377Z,75.56
2016-07-18T06:56:28.575Z,73.02
2016-07-18T06:57:28.524Z,71.28
2016-07-18T06:58:28.515Z,70.15
2016-07-18T06:59:28.501Z,68.54
2016-07-18T07:00:28.503Z,66.72
2016-07-18T07:01:28.519Z,66.86
2016-07-18T07:02:28.537Z,66.27
2016-07-18T07:03:28.477Z,65.62
2016-07-18T07:04:29.200Z,63.13
2016-07-18T07:05:28.479Z,62.77
2016-07-18T07:06:28.483Z,61.61
2016-07-18T07:07:28.490Z,61.35
2016-07-18T07:08:28.481Z,60.5
2016-07-18T07:09:28.470Z,60.21
2016-07-18T07:10:28.509Z,60.02
2016-07-18T07:11:28.524Z,60.11
2016-07-18T07:12:28.483Z,59.92
2016-07-18T07:13:28.491Z,58.75
2016-07-18T07:14:29.018Z,58.29
2016-07-18T07:15:28.494Z,57.15
2016-07-18T07:16:28.481Z,57.06
2016-07-18T07:17:28.504Z,55.91
2016-07-18T07:18:28.493Z,55.55
2016-07-18T07:19:28.519Z,54.21
2016-07-18T07:20:28.477Z,54.11
2016-07-18T07:21:28.492Z,53.6
2016-07-18T07:22:28.552Z,52.95
2016-07-18T07:23:28.503Z,52.58
2016-07-18T07:24:28.520Z,52.78
2016-07-18T07:25:28.516Z,53.66
2016-07-18T07:26:28.482Z,55.26
2016-07-18T07:27:28.510Z,55.23
2016-07-18T07:28:28.489Z,56.37
2016-07-18T07:29:28.479Z,56.37
2016-07-18T07:30:28.514Z,56.67
2016-07-18T07:31:28.489Z,57.32
2016-07-18T07:32:28.513Z,56.64
2016-07-18T07:33:28.521Z,56.18
2016-07-18T07:34:28.513Z,56.11
2016-07-18T07:35:28.502Z,55.75
2016-07-18T07:36:28.516Z,55.46
2016-07-18T07:37:28.523Z,54.8
2016-07-18T07:38:28.526Z,54.48
2016-07-18T07:39:28.607Z,53.92
2016-07-18T07:40:29.571Z,54.21
2016-07-18T07:41:28.851Z,53.56
2016-07-18T07:42:28.518Z,52.78
2016-07-18T07:43:28.792Z,53.95
2016-07-18T07:44:28.501Z,53.46
2016-07-18T07:45:28.946Z,53.85
2016-07-18T07:46:28.650Z,54.05
2016-07-18T07:47:29.517Z,53.53
2016-07-18T07:48:28.704Z,53.75
2016-07-18T07:49:28.601Z,54.14
2016-07-18T07:50:29.093Z,54.31
2016-07-18T07:51:28.674Z,54.8
2016-07-18T07:52:28.511Z,54.21
2016-07-18T07:53:28.534Z,54.24
2016-07-18T07:54:28.516Z,54.34
2016-07-18T07:55:28.564Z,54.24
2016-07-18T07:56:29.291Z,54.73
2016-07-18T07:57:28.601Z,55.48
2016-07-18T07:58:28.543Z,55.77
2016-07-18T07:59:28.541Z,55.94
2016-07-18T08:00:28.541Z,57.24
2016-07-18T08:01:28.532Z,57.96
2016-07-18T08:02:28.547Z,59.49
2016-07-18T08:03:28.549Z,60.7
2016-07-18T08:04:28.583Z,61.08
2016-07-18T08:05:28.576Z,60.89
2016-07-18T08:06:28.553Z,62.03
2016-07-18T08:07:28.540Z,63.26
2016-07-18T08:08:28.581Z,61.8
2016-07-18T08:09:28.545Z,61.35
2016-07-18T08:10:28.628Z,61.47
2016-07-18T08:11:28.588Z,60.5
2016-07-18T08:12:28.533Z,60.24
2016-07-18T08:13:28.551Z,60.44
2016-07-18T08:14:28.607Z,62.29
2016-07-18T08:15:28.535Z,61.11
2016-07-18T08:16:28.545Z,61.21
2016-07-18T08:17:28.576Z,61.08
2016-07-18T08:18:28.564Z,60.14
2016-07-18T08:19:28.570Z,60.53
2016-07-18T08:20:28.553Z,60.66
2016-07-18T08:21:28.584Z,61.9
2016-07-18T08:22:29.108Z,62.96
2016-07-18T08:23:28.659Z,61.67
2016-07-18T08:24:28.727Z,60.7
2016-07-18T08:25:28.677Z,61.44
2016-07-18T08:26:28.578Z,61.54
2016-07-18T08:27:28.995Z,63.2
2016-07-18T08:28:28.645Z,63.45
2016-07-18T08:29:28.577Z,63.62
2016-07-18T08:30:28.577Z,63.32
2016-07-18T08:31:28.576Z,62.97
2016-07-18T08:32:28.554Z,62.58
2016-07-18T08:33:28.562Z,61.58
2016-07-18T08:34:28.830Z,62.35
2016-07-18T08:35:28.559Z,62.48
2016-07-18T08:36:28.565Z,63.62
2016-07-18T08:37:28.574Z,63.23
2016-07-18T08:38:28.578Z,64.11
2016-07-18T08:39:28.610Z,66.34
2016-07-18T08:40:28.558Z,65.37
2016-07-18T08:41:28.599Z,66.34
2016-07-18T08:42:29.183Z,65.66
2016-07-18T08:43:28.575Z,66.44
2016-07-18T08:44:28.578Z,64.69
2016-07-18T08:45:28.601Z,64.01
2016-07-18T08:46:28.571Z,62.84
2016-07-18T08:47:28.578Z,62.84
2016-07-18T08:48:28.600Z,63.42
2016-07-18T08:49:28.610Z,62.74
2016-07-18T08:50:28.579Z,62.94
2016-07-18T08:51:28.579Z,62
2016-07-18T08:52:28.612Z,60.31
2016-07-18T08:53:28.577Z,60.44
2016-07-18T08:54:28.617Z,60.93
2016-07-18T08:55:28.574Z,63.62
2016-07-18T08:56:28.620Z,63.23
2016-07-18T08:57:28.605Z,62.35
2016-07-18T08:58:28.597Z,62.26
2016-07-18T08:59:28.618Z,61.38
2016-07-18T09:00:28.602Z,61.38
2016-07-18T09:01:28.632Z,60.97
2016-07-18T09:02:28.625Z,61.77
2016-07-18T09:03:28.692Z,62.07
2016-07-18T09:04:28.661Z,63.13
2016-07-18T09:05:28.611Z,63.42
2016-07-18T09:06:28.612Z,63.13
2016-07-18T09:07:28.641Z,63.13
2016-07-18T09:08:28.605Z,63.23
2016-07-18T09:09:28.593Z,64.11
2016-07-18T09:10:28.633Z,63.26
2016-07-18T09:11:28.642Z,63.17
2016-07-18T09:12:28.846Z,63.32
2016-07-18T09:13:28.663Z,63.13
2016-07-18T09:14:28.602Z,63.62
2016-07-18T09:15:28.607Z,63.62
2016-07-18T09:16:29.770Z,63.62
2016-07-18T09:17:28.728Z,63.71
2016-07-18T09:18:28.791Z,64.78
2016-07-18T09:19:28.605Z,63.42
2016-07-18T09:20:28.612Z,64.2
2016-07-18T09:21:28.636Z,65.08
2016-07-18T09:22:28.603Z,65.37
2016-07-18T09:23:28.818Z,65.85
2016-07-18T09:24:28.612Z,63.91
2016-07-18T09:25:29.234Z,63.23
2016-07-18T09:26:28.825Z,63.81
2016-07-18T09:27:28.629Z,62.84
2016-07-18T09:28:28.638Z,63.32
2016-07-18T09:29:28.647Z,63.42
2016-07-18T09:30:28.726Z,63.81
2016-07-18T09:31:28.776Z,64.88
2016-07-18T09:32:28.648Z,65.43
2016-07-18T09:33:28.643Z,65.82
2016-07-18T09:34:28.636Z,66.17
2016-07-18T09:35:28.639Z,66.5
2016-07-18T09:36:28.632Z,65.92
2016-07-18T09:37:28.727Z,60.97
2016-07-18T09:38:28.645Z,60.48
2016-07-18T09:39:28.623Z,60.48
2016-07-18T09:40:28.655Z,60.58
2016-07-18T09:41:28.667Z,60.77
2016-07-18T09:42:28.639Z,59.9
2016-07-18T09:43:28.651Z,58.73
2016-07-18T09:44:28.653Z,59.61
2016-07-18T09:45:28.654Z,61.71
2016-07-18T09:46:28.639Z,62.32
2016-07-18T09:47:28.645Z,63.46
2016-07-18T09:48:28.675Z,63.39
2016-07-18T09:49:28.637Z,62.23
2016-07-18T09:50:28.661Z,63.01
2016-07-18T09:51:28.938Z,62.81
2016-07-18T09:52:29.060Z,63.2
2016-07-18T09:53:28.641Z,63.49
2016-07-18T09:54:28.696Z,63.88
2016-07-18T09:55:28.674Z,63.49
2016-07-18T09:56:28.729Z,63.39
2016-07-18T09:57:28.711Z,63.36
2016-07-18T09:58:28.699Z,62.1
2016-07-18T09:59:28.702Z,62.19
2016-07-18T10:00:29.300Z,62.42
2016-07-18T10:01:28.667Z,63.78
2016-07-18T10:02:28.657Z,62.81
2016-07-18T10:03:28.702Z,63.39
2016-07-18T10:04:28.691Z,63.59
2016-07-18T10:05:28.760Z,63.29
2016-07-18T10:06:28.829Z,62.23
2016-07-18T10:07:28.735Z,62.16
2016-07-18T10:08:28.780Z,61.38
2016-07-18T10:09:28.669Z,61.87
2016-07-18T10:10:28.698Z,62.26
2016-07-18T10:11:28.700Z,62.16
2016-07-18T10:12:28.789Z,61.68
2016-07-18T10:13:29.504Z,62.84
2016-07-18T10:14:28.687Z,62.07
2016-07-18T10:15:28.684Z,62.16
2016-07-18T10:16:28.708Z,62.35
2016-07-18T10:17:28.726Z,60.61
2016-07-18T10:18:28.686Z,61.61
2016-07-18T10:19:28.683Z,61.12
2016-07-18T10:20:28.825Z,60.71
2016-07-18T10:21:28.679Z,60.54
2016-07-18T10:22:28.773Z,60.05
2016-07-18T10:23:28.702Z,59.18
2016-07-18T10:24:28.681Z,58.72
2016-07-18T10:25:28.729Z,60.05
2016-07-18T10:26:28.699Z,59.69
2016-07-18T10:27:28.733Z,58.43
2016-07-18T10:28:28.677Z,58.14
2016-07-18T10:29:28.707Z,59.21
2016-07-18T10:30:28.714Z,61.05
2016-07-18T10:31:28.699Z,59.99
2016-07-18T10:32:28.685Z,60.67
2016-07-18T10:33:28.918Z,61.02
2016-07-18T10:34:28.758Z,60.93
2016-07-18T10:35:28.685Z,60.35
2016-07-18T10:36:28.788Z,61.9
2016-07-18T10:37:28.746Z,60.54
2016-07-18T10:38:28.694Z,59.57
2016-07-18T10:39:28.731Z,59.47
2016-07-18T10:40:28.690Z,60.18
2016-07-18T10:41:28.717Z,58.53
2016-07-18T10:42:28.709Z,59.31
2016-07-18T10:43:28.709Z,58.43
2016-07-18T10:44:28.729Z,59.11
2016-07-18T10:45:28.704Z,59.11
2016-07-18T10:46:28.712Z,58.46
2016-07-18T10:47:28.704Z,57.97
2016-07-18T10:48:28.726Z,58.36
2016-07-18T10:49:28.717Z,57.9
2016-07-18T10:50:28.782Z,59.17
2016-07-18T10:51:28.719Z,56.54
2016-07-18T10:52:29.328Z,56.67
2016-07-18T10:53:29.097Z,55.66
2016-07-18T10:54:28.707Z,56.25
2016-07-18T10:55:28.759Z,56.05
2016-07-18T10:56:28.723Z,55.76
2016-07-18T10:57:28.730Z,55.99
2016-07-18T10:58:28.783Z,55.37
2016-07-18T10:59:28.701Z,55.89
2016-07-18T11:00:29.392Z,55.99
2016-07-18T11:01:28.703Z,54.94
2016-07-18T11:02:28.720Z,55.4
2016-07-18T11:03:28.718Z,55.6
2016-07-18T11:04:28.730Z,55.99
2016-07-18T11:05:28.745Z,56.45
2016-07-18T11:06:28.829Z,57.12
2016-07-18T11:07:28.794Z,56.71
2016-07-18T11:08:28.737Z,58.26
2016-07-18T11:09:28.729Z,59.41
2016-07-18T11:10:28.777Z,59.43
2016-07-18T11:11:28.801Z,58.17
2016-07-18T11:12:28.733Z,58.87
2016-07-18T11:13:28.755Z,58.1
2016-07-18T11:14:28.960Z,57.9
2016-07-18T11:15:28.806Z,57.93
2016-07-18T11:16:28.866Z,57.81
2016-07-18T11:17:29.033Z,56.86
2016-07-18T11:18:28.903Z,56.74
2016-07-18T11:19:28.742Z,56.35
2016-07-18T11:20:28.748Z,56.54
2016-07-18T11:21:28.793Z,56.84
2016-07-18T11:22:28.758Z,56.15
2016-07-18T11:23:28.741Z,56.84
2016-07-18T11:24:28.926Z,57.25
2016-07-18T11:25:28.774Z,59.49
2016-07-18T11:26:28.742Z,59.2
2016-07-18T11:27:28.815Z,58.49
2016-07-18T11:28:28.831Z,56.86
2016-07-18T11:29:28.843Z,57.9
2016-07-18T11:30:28.762Z,57.51
2016-07-18T11:31:28.948Z,57.49
2016-07-18T11:32:28.755Z,58
2016-07-18T11:33:28.761Z,57.03
2016-07-18T11:34:28.795Z,56.54
2016-07-18T11:35:28.764Z,57.61
2016-07-18T11:36:28.916Z,57.42
2016-07-18T11:37:28.748Z,58.78
2016-07-18T11:38:28.751Z,57.32
2016-07-18T11:39:28.792Z,57.12
2016-07-18T11:40:28.770Z,54.89
2016-07-18T11:41:28.812Z,55.66
2016-07-18T11:42:28.768Z,55.18
2016-07-18T11:43:28.776Z,54.52
2016-07-18T11:44:28.758Z,55.27
2016-07-18T11:45:29.376Z,55.99
2016-07-18T11:46:28.786Z,55.3
2016-07-18T11:47:28.794Z,55.01
2016-07-18T11:48:28.952Z,54.36
2016-07-18T11:49:29.526Z,53.77
2016-07-18T11:50:28.897Z,53.09
2016-07-18T11:51:28.848Z,53.28
2016-07-18T11:52:28.900Z,54.26
2016-07-18T11:53:29.636Z,53.09
2016-07-18T11:54:28.795Z,52.99
2016-07-18T11:55:28.831Z,53.67
2016-07-18T11:56:28.795Z,53.58
2016-07-18T11:57:28.894Z,52.7
2016-07-18T11:58:28.867Z,52.02
2016-07-18T11:59:28.865Z,51.56
2016-07-18T12:00:28.871Z,53.19
2016-07-18T12:01:28.869Z,53.11
2016-07-18T12:02:28.865Z,52.92
2016-07-18T12:03:28.808Z,52.04
2016-07-18T12:04:28.824Z,50.97
2016-07-18T12:05:28.849Z,50.97
2016-07-18T12:06:28.817Z,50.78
2016-07-18T12:07:29.255Z,50.68
2016-07-18T12:08:28.807Z,50.68
2016-07-18T12:09:28.827Z,50.78
2016-07-18T12:10:28.797Z,50.48
2016-07-18T12:11:28.853Z,51.07
2016-07-18T12:12:28.805Z,51.17
2016-07-18T12:13:28.813Z,50.78
2016-07-18T12:14:28.835Z,50.09
2016-07-18T12:15:28.781Z,48.63
2016-07-18T12:16:28.869Z,50.48
2016-07-18T12:17:28.794Z,51.07
2016-07-18T12:18:28.877Z,49.22
2016-07-18T12:19:28.804Z,50.85
2016-07-18T12:20:29.543Z,50.85
2016-07-18T12:21:28.888Z,50.16
2016-07-18T12:22:28.825Z,51.24
2016-07-18T12:23:28.953Z,52.04
2016-07-18T12:24:28.856Z,53.02
2016-07-18T12:25:28.820Z,51.65
2016-07-18T12:26:28.953Z,51.85
2016-07-18T12:27:28.933Z,51.07
2016-07-18T12:28:28.821Z,51.75
2016-07-18T12:29:28.899Z,51.85
2016-07-18T12:30:29.437Z,51.82
2016-07-18T12:31:28.838Z,52.7
2016-07-18T12:32:28.836Z,53.45
2016-07-18T12:33:28.860Z,54.21
2016-07-18T12:34:28.855Z,54.21
2016-07-18T12:35:28.873Z,54.72
2016-07-18T12:36:28.884Z,55.08
2016-07-18T12:37:28.878Z,55.57
2016-07-18T12:38:28.886Z,54.21
2016-07-18T12:39:28.844Z,53.45
2016-07-18T12:40:28.861Z,52.48
2016-07-18T12:41:28.843Z,52.58
2016-07-18T12:42:28.863Z,53.33
2016-07-18T12:43:29.030Z,52.75
2016-07-18T12:44:28.932Z,53.04
2016-07-18T12:45:28.891Z,51.67
2016-07-18T12:46:28.954Z,52.84
2016-07-18T12:47:29.257Z,52.72
2016-07-18T12:48:28.868Z,53.3
2016-07-18T12:49:28.844Z,52.59
2016-07-18T12:50:28.885Z,52.89
2016-07-18T12:51:29.461Z,54.74
2016-07-18T12:52:28.959Z,55.03
2016-07-18T12:53:28.968Z,53.86